createdAt,value
2019-04-25T00:01:36.863Z,8.50
2019-04-25T00:04:05.324Z,8.40
2019-04-25T00:06:34.963Z,8.40
2019-04-25T00:09:06.553Z,8.40
2019-04-25T00:11:35.005Z,8.30
2019-04-25T00:14:03.384Z,8.30
2019-04-25T00:16:33.324Z,8.30
2019-04-25T00:19:01.941Z,8.30
2019-04-25T00:21:42.529Z,8.30
2019-04-25T00:24:12.720Z,8.20
2019-04-25T00:26:44.100Z,8.20
2019-04-25T00:29:13.307Z,8.20
2019-04-25T00:31:43.669Z,8.10
2019-04-25T00:34:12.139Z,8.10
2019-04-25T00:36:43.044Z,8.10
2019-04-25T00:39:11.909Z,8.20
2019-04-25T00:41:41.633Z,8.10
2019-04-25T00:44:12.015Z,8.10
2019-04-25T00:46:43.299Z,8.00
2019-04-25T00:49:12.157Z,7.90
2019-04-25T00:51:42.650Z,7.90
2019-04-25T00:54:11.849Z,7.90
2019-04-25T00:56:43.282Z,7.80
2019-04-25T00:59:14.664Z,7.90
2019-04-25T01:01:51.861Z,7.90
2019-04-25T01:04:22.172Z,7.80
2019-04-25T01:06:52.003Z,7.80
2019-04-25T01:09:22.215Z,7.80
2019-04-25T01:11:52.325Z,7.80
2019-04-25T01:14:21.803Z,7.80
2019-04-25T01:16:51.110Z,7.80
2019-04-25T01:19:20.612Z,7.80
2019-04-25T01:21:49.160Z,7.80
2019-04-25T01:24:18.019Z,7.70
2019-04-25T01:26:47.442Z,7.70
2019-04-25T01:29:16.090Z,7.80
2019-04-25T01:31:44.552Z,7.80
2019-04-25T01:34:14.568Z,7.80
2019-04-25T01:36:44.833Z,7.80
2019-04-25T01:39:15.232Z,7.80
2019-04-25T01:41:47.690Z,7.80
2019-04-25T01:44:17.706Z,7.70
2019-04-25T01:46:46.076Z,7.50
2019-04-25T01:49:14.455Z,7.40
2019-04-25T01:51:43.719Z,7.40
2019-04-25T01:54:14.011Z,7.40
2019-04-25T01:56:42.307Z,7.50
2019-04-25T01:59:10.693Z,7.50
2019-04-25T02:01:39.936Z,7.50
2019-04-25T02:04:08.312Z,7.50
2019-04-25T02:06:36.778Z,7.50
2019-04-25T02:09:08.639Z,7.50
2019-04-25T02:11:41.731Z,7.50
2019-04-25T02:14:10.211Z,7.50
2019-04-25T02:16:38.584Z,7.60
2019-04-25T02:19:07.027Z,7.60
2019-04-25T02:21:35.477Z,7.60
2019-04-25T02:24:05.474Z,7.60
2019-04-25T02:26:34.175Z,7.50
2019-04-25T02:29:04.541Z,7.60
2019-04-25T02:31:34.764Z,7.60
2019-04-25T02:34:06.159Z,7.60
2019-04-25T02:36:34.680Z,7.50
2019-04-25T02:39:08.238Z,7.30
2019-04-25T02:41:34.351Z,7.40
2019-04-25T02:44:09.390Z,7.50
2019-04-25T02:46:37.654Z,7.50
2019-04-25T02:49:29.304Z,7.70
2019-04-25T02:51:56.146Z,7.80
2019-04-25T02:54:24.633Z,7.90
2019-04-25T02:56:54.754Z,7.90
2019-04-25T02:59:25.384Z,7.90
2019-04-25T03:01:54.127Z,7.90
2019-04-25T03:04:24.063Z,7.90
2019-04-25T03:06:55.202Z,7.90
2019-04-25T03:09:24.847Z,7.90
2019-04-25T03:11:54.640Z,8.00
2019-04-25T03:14:26.380Z,8.00
2019-04-25T03:16:54.363Z,8.00
2019-04-25T03:19:40.793Z,7.90
2019-04-25T03:22:26.753Z,7.80
2019-04-25T03:24:55.164Z,7.80
2019-04-25T03:27:25.211Z,7.70
2019-04-25T03:29:54.207Z,7.60
2019-04-25T03:32:27.926Z,7.60
2019-04-25T03:34:53.155Z,7.70
2019-04-25T03:37:23.438Z,7.70
2019-04-25T03:39:53.445Z,7.80
2019-04-25T03:42:22.087Z,7.90
2019-04-25T03:44:50.463Z,7.90
2019-04-25T03:47:18.859Z,7.90
2019-04-25T03:49:47.227Z,7.80
2019-04-25T03:52:15.604Z,7.90
2019-04-25T03:54:44.013Z,7.90
2019-04-25T03:57:14.330Z,7.90
2019-04-25T03:59:43.729Z,7.90
2019-04-25T04:02:24.074Z,7.90
2019-04-25T04:04:53.774Z,7.90
2019-04-25T04:07:23.718Z,7.80
2019-04-25T04:09:53.270Z,7.80
2019-04-25T04:12:24.166Z,7.80
2019-04-25T04:14:53.776Z,7.80
2019-04-25T04:17:29.636Z,7.80
2019-04-25T04:20:03.972Z,7.80
2019-04-25T04:22:40.439Z,7.80
2019-04-25T04:25:10.548Z,7.80
2019-04-25T04:27:38.911Z,7.70
2019-04-25T04:30:07.989Z,7.80
2019-04-25T04:32:36.482Z,7.80
2019-04-25T04:35:07.150Z,7.90
2019-04-25T04:37:35.664Z,8.00
2019-04-25T04:40:08.068Z,8.00
2019-04-25T04:42:36.404Z,8.00
2019-04-25T04:45:05.728Z,7.90
2019-04-25T04:47:34.871Z,8.00
2019-04-25T04:50:04.232Z,8.00
2019-04-25T04:52:34.097Z,8.10
2019-04-25T04:55:06.489Z,8.10
2019-04-25T04:57:35.835Z,8.20
2019-04-25T05:00:03.712Z,8.30
2019-04-25T05:02:39.532Z,8.40
2019-04-25T05:05:15.923Z,8.50
2019-04-25T05:07:46.051Z,8.60
2019-04-25T05:10:17.206Z,8.80
2019-04-25T05:12:44.532Z,9.10
2019-04-25T05:15:16.243Z,9.40
2019-04-25T05:17:44.028Z,9.70
2019-04-25T05:20:13.311Z,10.00
2019-04-25T05:22:44.422Z,10.10
2019-04-25T05:25:15.313Z,10.40
2019-04-25T05:27:57.817Z,10.50
2019-04-25T05:30:17.006Z,10.60
2019-04-25T05:32:46.168Z,10.70
2019-04-25T05:35:15.305Z,10.80
2019-04-25T05:37:44.724Z,10.90
2019-04-25T05:40:14.667Z,11.00
2019-04-25T05:43:01.404Z,11.10
2019-04-25T05:45:31.257Z,11.20
2019-04-25T05:47:59.632Z,11.10
2019-04-25T05:50:28.020Z,11.10
2019-04-25T05:52:56.412Z,11.10
2019-04-25T05:55:25.232Z,11.30
2019-04-25T05:57:53.840Z,11.40
2019-04-25T06:00:24.315Z,11.50
2019-04-25T06:02:53.359Z,11.50
2019-04-25T06:05:23.431Z,11.40
2019-04-25T06:07:51.967Z,11.50
2019-04-25T06:10:28.111Z,11.50
2019-04-25T06:13:13.839Z,11.70
2019-04-25T06:15:44.052Z,11.90
2019-04-25T06:18:16.896Z,12.10
2019-04-25T06:20:45.342Z,12.40
2019-04-25T06:23:31.647Z,12.70
2019-04-25T06:26:00.024Z,12.90
2019-04-25T06:28:30.047Z,13.10
2019-04-25T06:30:58.440Z,13.30
2019-04-25T06:33:27.078Z,13.30
2019-04-25T06:35:56.947Z,13.30
2019-04-25T06:38:27.155Z,13.20
2019-04-25T06:40:55.511Z,13.20
2019-04-25T06:43:24.595Z,13.20
2019-04-25T06:46:14.040Z,13.30
2019-04-25T06:48:45.567Z,13.30
2019-04-25T06:51:14.138Z,13.30
2019-04-25T06:53:43.612Z,13.10
2019-04-25T06:56:13.675Z,13.00
2019-04-25T06:58:43.848Z,12.90
2019-04-25T07:01:13.498Z,13.00
2019-04-25T07:03:42.235Z,13.10
2019-04-25T07:06:10.639Z,13.40
2019-04-25T07:08:39.016Z,13.50
2019-04-25T07:11:07.628Z,13.60
2019-04-25T07:13:38.774Z,13.80
2019-04-25T07:16:06.146Z,14.10
2019-04-25T07:18:37.062Z,14.80
2019-04-25T07:21:04.612Z,14.80
2019-04-25T07:23:34.491Z,14.60
2019-04-25T07:26:05.038Z,14.50
2019-04-25T07:28:38.047Z,14.70
2019-04-25T07:31:25.322Z,14.80
2019-04-25T07:33:55.349Z,15.00
2019-04-25T07:36:23.727Z,15.90
2019-04-25T07:39:05.134Z,16.70
2019-04-25T07:41:22.221Z,16.10
2019-04-25T07:43:50.680Z,16.00
2019-04-25T07:46:19.128Z,15.80
2019-04-25T07:48:47.507Z,15.40
2019-04-25T07:51:16.506Z,15.00
2019-04-25T07:53:45.051Z,14.50
2019-04-25T07:56:14.220Z,14.60
2019-04-25T07:58:50.487Z,14.60
2019-04-25T08:01:14.672Z,14.50
2019-04-25T08:03:44.068Z,14.60
2019-04-25T08:06:13.729Z,14.50
2019-04-25T08:08:43.609Z,14.40
2019-04-25T08:11:14.036Z,14.40
2019-04-25T08:13:59.048Z,14.40
2019-04-25T08:16:34.308Z,14.40
2019-04-25T08:19:03.983Z,14.30
2019-04-25T08:21:34.435Z,14.20
2019-04-25T08:24:04.661Z,14.30
2019-04-25T08:26:35.045Z,14.30
2019-04-25T08:29:04.063Z,14.40
2019-04-25T08:31:34.764Z,14.50
2019-04-25T08:34:03.604Z,14.50
2019-04-25T08:36:33.824Z,14.50
2019-04-25T08:39:03.359Z,14.50
2019-04-25T08:41:34.157Z,14.70
2019-04-25T08:44:01.972Z,14.80
2019-04-25T08:46:30.352Z,15.20
2019-04-25T08:49:06.128Z,15.60
2019-04-25T08:51:37.950Z,16.10
2019-04-25T08:54:17.135Z,16.70
2019-04-25T08:56:45.521Z,17.50
2019-04-25T08:59:37.272Z,17.70
2019-04-25T09:02:03.514Z,18.10
2019-04-25T09:04:35.693Z,18.00
2019-04-25T09:07:05.438Z,17.50
2019-04-25T09:09:35.338Z,16.90
2019-04-25T09:12:04.222Z,17.00
2019-04-25T09:14:34.922Z,17.00
2019-04-25T09:17:03.257Z,17.10
2019-04-25T09:19:31.724Z,17.10
2019-04-25T09:22:00.107Z,16.90
2019-04-25T09:24:28.484Z,18.00
2019-04-25T09:26:56.868Z,18.70
2019-04-25T09:29:25.263Z,19.40
2019-04-25T09:31:53.845Z,19.40
2019-04-25T09:34:23.698Z,19.30
2019-04-25T09:36:53.648Z,18.20
2019-04-25T09:39:23.767Z,17.70
2019-04-25T09:41:53.478Z,17.70
2019-04-25T09:44:26.428Z,17.30
2019-04-25T09:46:54.815Z,17.50
2019-04-25T09:49:31.061Z,17.50
2019-04-25T09:52:01.089Z,17.50
2019-04-25T09:54:37.959Z,17.40
2019-04-25T09:57:08.255Z,17.30
2019-04-25T09:59:37.530Z,17.20
2019-04-25T10:02:07.338Z,16.90
2019-04-25T10:04:35.716Z,17.10
2019-04-25T10:07:04.932Z,17.60
2019-04-25T10:09:33.803Z,17.90
2019-04-25T10:12:02.375Z,18.00
2019-04-25T10:14:54.282Z,18.10
2019-04-25T10:17:23.746Z,18.20
2019-04-25T10:19:52.209Z,18.40
2019-04-25T10:22:20.672Z,18.50
2019-04-25T10:24:58.880Z,18.80
2019-04-25T10:27:19.223Z,19.00
2019-04-25T10:29:53.480Z,19.10
2019-04-25T10:32:17.780Z,19.40
2019-04-25T10:34:46.247Z,19.50
2019-04-25T10:37:15.653Z,19.80
2019-04-25T10:39:44.827Z,20.10
2019-04-25T10:42:14.281Z,20.60
2019-04-25T10:44:44.833Z,20.90
2019-04-25T10:47:12.811Z,20.80
2019-04-25T10:49:41.260Z,20.60
2019-04-25T10:52:10.202Z,20.90
2019-04-25T10:54:39.695Z,21.40
2019-04-25T10:57:09.240Z,21.90
2019-04-25T10:59:37.639Z,22.20
2019-04-25T11:02:07.637Z,21.80
2019-04-25T11:04:37.660Z,20.80
2019-04-25T11:07:06.043Z,19.90
2019-04-25T11:09:34.625Z,19.10
2019-04-25T11:12:03.943Z,18.40
2019-04-25T11:14:34.216Z,18.10
2019-04-25T11:17:02.828Z,17.90
2019-04-25T11:19:31.200Z,18.10
2019-04-25T11:21:59.591Z,18.20
2019-04-25T11:24:27.970Z,18.40
2019-04-25T11:26:56.512Z,18.70
2019-04-25T11:29:25.269Z,19.40
2019-04-25T11:31:53.811Z,20.40
2019-04-25T11:34:23.111Z,21.10
2019-04-25T11:36:51.611Z,22.40
2019-04-25T11:39:24.113Z,23.60
2019-04-25T11:41:54.652Z,23.80
2019-04-25T11:44:24.457Z,24.00
2019-04-25T11:46:52.784Z,24.20
2019-04-25T11:49:21.178Z,23.30
2019-04-25T11:51:50.262Z,23.20
2019-04-25T11:54:18.696Z,22.90
2019-04-25T11:56:47.343Z,21.70
2019-04-25T11:59:16.008Z,20.90
2019-04-25T12:01:45.393Z,20.40
2019-04-25T12:04:14.925Z,20.80
2019-04-25T12:06:47.051Z,21.20
2019-04-25T12:09:13.920Z,20.90
2019-04-25T12:11:44.578Z,20.90
2019-04-25T12:14:12.571Z,21.10
2019-04-25T12:16:40.954Z,21.00
2019-04-25T12:19:09.357Z,21.70
2019-04-25T12:21:37.747Z,22.20
2019-04-25T12:24:06.203Z,22.30
2019-04-25T12:26:34.595Z,22.30
2019-04-25T12:29:04.409Z,23.50
2019-04-25T12:31:34.155Z,22.70
2019-04-25T12:34:03.482Z,22.10
2019-04-25T12:36:31.968Z,21.90
2019-04-25T12:39:01.091Z,22.10
2019-04-25T12:41:29.699Z,23.60
2019-04-25T12:44:16.148Z,24.00
2019-04-25T12:46:46.180Z,24.60
2019-04-25T12:49:15.235Z,25.10
2019-04-25T12:51:43.711Z,25.30
2019-04-25T12:54:13.771Z,25.90
2019-04-25T12:56:43.308Z,26.70
2019-04-25T12:59:11.923Z,26.30
2019-04-25T13:01:40.308Z,26.30
2019-04-25T13:04:08.688Z,26.30
2019-04-25T13:06:37.081Z,27.00
2019-04-25T13:09:07.098Z,27.60
2019-04-25T13:11:35.562Z,27.30
2019-04-25T13:14:03.944Z,25.50
2019-04-25T13:16:32.344Z,24.30
2019-04-25T13:19:13.581Z,23.50
2019-04-25T13:21:30.824Z,22.70
2019-04-25T13:23:59.211Z,22.10
2019-04-25T13:26:29.237Z,21.60
2019-04-25T13:28:59.259Z,21.20
2019-04-25T13:31:45.823Z,20.90
2019-04-25T13:34:15.851Z,20.50
2019-04-25T13:36:44.415Z,20.20
2019-04-25T13:39:15.088Z,19.90
2019-04-25T13:41:44.834Z,19.70
2019-04-25T13:44:14.222Z,19.60
2019-04-25T13:46:43.336Z,19.50
2019-04-25T13:49:12.177Z,19.60
2019-04-25T13:51:41.831Z,19.60
2019-04-25T13:54:10.225Z,19.60
2019-04-25T13:56:40.577Z,19.60
2019-04-25T13:59:09.495Z,19.50
2019-04-25T14:01:38.235Z,19.40
2019-04-25T14:04:06.970Z,19.40
2019-04-25T14:06:35.339Z,19.10
2019-04-25T14:09:07.397Z,19.00
2019-04-25T14:11:36.114Z,19.00
2019-04-25T14:14:04.629Z,18.90
2019-04-25T14:16:37.556Z,18.80
2019-04-25T14:19:10.356Z,18.70
2019-04-25T14:21:38.727Z,18.70
2019-04-25T14:24:14.442Z,18.70
2019-04-25T14:26:37.207Z,18.70
2019-04-25T14:29:05.856Z,18.70
2019-04-25T14:31:44.952Z,18.80
2019-04-25T14:34:05.094Z,18.70
2019-04-25T14:36:34.528Z,18.50
2019-04-25T14:39:03.222Z,18.40
2019-04-25T14:41:32.367Z,18.40
2019-04-25T14:44:00.856Z,18.50
2019-04-25T14:46:29.944Z,18.60
2019-04-25T14:48:58.484Z,18.60
2019-04-25T14:51:26.871Z,18.50
2019-04-25T14:53:55.925Z,18.60
2019-04-25T14:56:34.883Z,18.50
2019-04-25T14:59:05.132Z,18.40
2019-04-25T15:01:44.030Z,18.20
2019-04-25T15:04:03.622Z,18.30
2019-04-25T15:06:32.097Z,17.90
2019-04-25T15:09:00.472Z,17.60
2019-04-25T15:11:29.098Z,17.40
2019-04-25T15:13:57.635Z,17.50
2019-04-25T15:16:26.862Z,17.80
2019-04-25T15:18:55.463Z,18.00
2019-04-25T15:21:23.855Z,17.80
2019-04-25T15:23:59.917Z,17.90
2019-04-25T15:26:22.344Z,18.10
2019-04-25T15:28:50.727Z,17.90
2019-04-25T15:31:19.192Z,17.80
2019-04-25T15:33:47.584Z,17.90
2019-04-25T15:36:24.658Z,17.80
2019-04-25T15:38:57.295Z,17.80
2019-04-25T15:41:28.237Z,17.80
2019-04-25T15:43:58.419Z,17.80
2019-04-25T15:46:28.447Z,17.90
2019-04-25T15:48:56.836Z,17.90
2019-04-25T15:51:25.571Z,18.20
2019-04-25T15:53:54.079Z,18.30
2019-04-25T15:56:22.468Z,18.00
2019-04-25T15:58:50.848Z,18.10
2019-04-25T16:01:19.299Z,18.10
2019-04-25T16:03:47.676Z,17.80
2019-04-25T16:06:16.131Z,17.50
2019-04-25T16:08:44.759Z,17.40
2019-04-25T16:11:13.149Z,17.40
2019-04-25T16:13:41.595Z,17.20
2019-04-25T16:16:09.996Z,17.20
2019-04-25T16:18:38.372Z,17.00
2019-04-25T16:21:06.743Z,16.90
2019-04-25T16:23:36.369Z,17.00
2019-04-25T16:26:05.916Z,17.00
2019-04-25T16:28:34.552Z,17.00
2019-04-25T16:31:04.569Z,17.00
2019-04-25T16:33:33.207Z,16.90
2019-04-25T16:36:01.791Z,16.80
2019-04-25T16:38:31.165Z,16.70
2019-04-25T16:40:59.743Z,16.60
2019-04-25T16:43:29.832Z,16.60
2019-04-25T16:45:58.215Z,16.60
2019-04-25T16:48:26.621Z,16.60
2019-04-25T16:50:55.004Z,16.50
2019-04-25T16:53:23.383Z,16.30
2019-04-25T16:55:51.778Z,15.90
2019-04-25T16:58:20.223Z,15.60
2019-04-25T17:00:56.263Z,15.40
2019-04-25T17:03:25.584Z,15.10
2019-04-25T17:05:53.960Z,14.90
2019-04-25T17:08:22.651Z,14.70
2019-04-25T17:10:51.077Z,14.50
2019-04-25T17:13:19.452Z,14.30
2019-04-25T17:15:52.169Z,14.20
2019-04-25T17:18:31.902Z,14.00
2019-04-25T17:21:04.435Z,13.90
2019-04-25T17:23:32.964Z,13.70
2019-04-25T17:26:04.708Z,13.60
2019-04-25T17:28:35.408Z,13.50
2019-04-25T17:31:05.433Z,13.50
2019-04-25T17:33:38.236Z,13.40
2019-04-25T17:36:08.275Z,13.30
2019-04-25T17:38:47.319Z,13.20
2019-04-25T17:41:15.709Z,13.00
2019-04-25T17:43:44.088Z,12.80
2019-04-25T17:46:14.188Z,12.80
2019-04-25T17:48:43.117Z,12.70
2019-04-25T17:51:11.557Z,12.80
2019-04-25T17:53:39.945Z,12.70
2019-04-25T17:56:08.316Z,12.70
2019-04-25T17:58:36.789Z,12.70
2019-04-25T18:01:07.235Z,12.60
2019-04-25T18:03:35.617Z,12.60
2019-04-25T18:06:04.015Z,12.50
2019-04-25T18:08:33.390Z,12.50
2019-04-25T18:11:02.684Z,12.30
2019-04-25T18:13:31.055Z,12.20
2019-04-25T18:16:10.188Z,12.10
2019-04-25T18:18:43.508Z,12.00
2019-04-25T18:21:12.026Z,11.80
2019-04-25T18:23:58.376Z,11.70
2019-04-25T18:26:28.396Z,11.70
2019-04-25T18:29:07.155Z,11.60
2019-04-25T18:31:35.659Z,11.60
2019-04-25T18:34:05.869Z,11.50
2019-04-25T18:36:41.652Z,11.40
2019-04-25T18:39:17.781Z,11.30
2019-04-25T18:41:50.535Z,11.20
2019-04-25T18:44:18.918Z,11.20
2019-04-25T18:46:47.876Z,11.20
2019-04-25T18:49:16.268Z,11.10
2019-04-25T18:51:54.951Z,11.20
2019-04-25T18:54:25.168Z,11.30
2019-04-25T18:56:58.148Z,11.20
2019-04-25T18:59:46.112Z,11.20
2019-04-25T19:02:23.194Z,11.20
2019-04-25T19:04:53.235Z,11.00
2019-04-25T19:07:22.614Z,11.10
2019-04-25T19:09:51.439Z,11.10
2019-04-25T19:12:19.833Z,11.10
2019-04-25T19:14:48.208Z,11.10
2019-04-25T19:17:16.584Z,11.10
2019-04-25T19:19:45.631Z,11.10
2019-04-25T19:22:14.132Z,11.00
2019-04-25T19:24:45.019Z,11.00
2019-04-25T19:27:23.141Z,10.90
2019-04-25T19:29:43.834Z,11.00
2019-04-25T19:32:12.356Z,11.10
2019-04-25T19:34:41.251Z,11.20
2019-04-25T19:37:10.133Z,11.30
2019-04-25T19:39:40.566Z,11.40
2019-04-25T19:42:14.533Z,11.30
2019-04-25T19:44:42.912Z,11.40
2019-04-25T19:47:11.532Z,11.40
2019-04-25T19:49:40.625Z,11.40
2019-04-25T19:52:10.064Z,11.40
2019-04-25T19:54:38.455Z,11.40
2019-04-25T19:57:06.827Z,11.30
2019-04-25T19:59:35.273Z,11.30
2019-04-25T20:02:08.272Z,11.30
2019-04-25T20:04:44.432Z,11.20
2019-04-25T20:07:14.489Z,11.10
2019-04-25T20:10:00.558Z,11.10
2019-04-25T20:12:30.656Z,11.00
2019-04-25T20:14:59.033Z,11.00
2019-04-25T20:17:27.415Z,11.10
2019-04-25T20:19:55.806Z,11.00
2019-04-25T20:22:24.176Z,11.00
2019-04-25T20:24:52.570Z,10.90
2019-04-25T20:27:20.940Z,10.80
2019-04-25T20:29:49.332Z,10.80
2019-04-25T20:32:17.705Z,10.90
2019-04-25T20:34:46.976Z,10.90
2019-04-25T20:37:15.564Z,11.00
2019-04-25T20:39:43.944Z,11.00
2019-04-25T20:42:12.328Z,11.00
2019-04-25T20:44:40.704Z,11.00
2019-04-25T20:47:09.182Z,10.90
2019-04-25T20:49:37.629Z,10.80
2019-04-25T20:52:06.003Z,10.80
2019-04-25T20:54:34.396Z,10.90
2019-04-25T20:57:02.773Z,10.90
2019-04-25T20:59:31.151Z,10.80
2019-04-25T21:01:59.556Z,10.80
2019-04-25T21:04:41.509Z,10.90
2019-04-25T21:07:10.436Z,10.90
2019-04-25T21:09:39.060Z,10.90
2019-04-25T21:12:07.748Z,10.70
2019-04-25T21:14:37.763Z,10.80
2019-04-25T21:17:10.859Z,10.80
2019-04-25T21:19:43.875Z,10.70
2019-04-25T21:22:12.260Z,10.80
2019-04-25T21:24:40.635Z,10.70
2019-04-25T21:27:09.036Z,10.60
2019-04-25T21:29:37.487Z,10.60
2019-04-25T21:32:05.927Z,10.50
2019-04-25T21:34:34.321Z,10.60
2019-04-25T21:37:03.106Z,10.60
2019-04-25T21:39:40.156Z,10.50
2019-04-25T21:42:16.848Z,10.50
2019-04-25T21:44:45.515Z,10.60
2019-04-25T21:47:13.898Z,10.70
2019-04-25T21:49:42.543Z,10.70
2019-04-25T21:52:10.931Z,10.70
2019-04-25T21:54:39.915Z,10.70
2019-04-25T21:57:08.571Z,10.70
2019-04-25T21:59:36.966Z,10.80
2019-04-25T22:02:05.432Z,10.80
2019-04-25T22:04:38.924Z,10.70
2019-04-25T22:07:05.087Z,10.70
2019-04-25T22:09:33.932Z,10.70
2019-04-25T22:12:03.201Z,10.70
2019-04-25T22:14:31.683Z,10.70
2019-04-25T22:17:00.503Z,10.60
2019-04-25T22:19:29.427Z,10.50
2019-04-25T22:21:58.801Z,10.50
2019-04-25T22:24:27.350Z,10.50
2019-04-25T22:26:57.539Z,10.50
2019-04-25T22:29:27.504Z,10.50
2019-04-25T22:32:00.423Z,10.50
2019-04-25T22:34:52.517Z,10.50
2019-04-25T22:37:18.204Z,10.60
2019-04-25T22:39:46.763Z,10.60
2019-04-25T22:42:15.147Z,10.60
2019-04-25T22:44:43.520Z,10.50
2019-04-25T22:47:12.581Z,10.40
2019-04-25T22:49:40.951Z,10.40
2019-04-25T22:52:09.511Z,10.40
2019-04-25T22:54:38.068Z,10.20
2019-04-25T22:57:06.598Z,10.20
2019-04-25T22:59:35.311Z,10.10
2019-04-25T23:02:05.488Z,10.20
2019-04-25T23:04:38.616Z,10.10
2019-04-25T23:07:07.927Z,10.00
2019-04-25T23:09:37.396Z,10.00
2019-04-25T23:12:06.683Z,10.10
2019-04-25T23:14:35.391Z,10.00
2019-04-25T23:17:04.966Z,9.90
2019-04-25T23:19:33.532Z,9.90
2019-04-25T23:22:01.896Z,9.80
2019-04-25T23:24:31.915Z,9.90
2019-04-25T23:27:18.794Z,9.90
2019-04-25T23:29:47.163Z,9.90
2019-04-25T23:32:15.911Z,9.90
2019-04-25T23:34:44.299Z,10.00
2019-04-25T23:37:13.115Z,10.00
2019-04-25T23:39:41.839Z,9.90
2019-04-25T23:42:11.351Z,9.90
2019-04-25T23:44:40.112Z,9.80
2019-04-25T23:47:08.484Z,9.80
2019-04-25T23:49:36.864Z,9.90
2019-04-25T23:52:07.274Z,9.80
2019-04-25T23:54:35.751Z,9.80
2019-04-25T23:57:04.380Z,9.70
2019-04-25T23:59:32.825Z,9.60
